sensor_id;sensor_type;location;lat;lon;timestamp;P1;durP1;ratioP1;P2;durP2;ratioP2
70757;SDS011;59316;52.964;7.102;2022-09-16T00:04:35;7.50;;;1.52;;
70757;SDS011;59316;52.964;7.102;2022-09-16T00:09:37;9.32;;;1.75;;
70757;SDS011;59316;52.964;7.102;2022-09-16T00:14:40;10.88;;;1.70;;
70757;SDS011;59316;52.964;7.102;2022-09-16T00:19:42;3.33;;;1.48;;
70757;SDS011;59316;52.964;7.102;2022-09-16T00:24:44;6.50;;;1.52;;
70757;SDS011;59316;52.964;7.102;2022-09-16T00:29:49;11.27;;;1.50;;
70757;SDS011;59316;52.964;7.102;2022-09-16T00:34:51;6.60;;;2.17;;
70757;SDS011;59316;52.964;7.102;2022-09-16T00:39:53;7.82;;;1.50;;
70757;SDS011;59316;52.964;7.102;2022-09-16T00:44:59;7.88;;;1.33;;
70757;SDS011;59316;52.964;7.102;2022-09-16T00:50:08;3.17;;;1.42;;
70757;SDS011;59316;52.964;7.102;2022-09-16T00:55:31;7.47;;;1.67;;
70757;SDS011;59316;52.964;7.102;2022-09-16T01:00:37;6.88;;;1.50;;
70757;SDS011;59316;52.964;7.102;2022-09-16T01:05:39;10.33;;;1.63;;
70757;SDS011;59316;52.964;7.102;2022-09-16T01:10:42;4.43;;;1.45;;
70757;SDS011;59316;52.964;7.102;2022-09-16T01:32:13;3.70;;;1.00;;
70757;SDS011;59316;52.964;7.102;2022-09-16T01:37:30;1.70;;;1.15;;
70757;SDS011;59316;52.964;7.102;2022-09-16T01:48:12;9.52;;;1.48;;
70757;SDS011;59316;52.964;7.102;2022-09-16T01:58:37;2.08;;;1.00;;
70757;SDS011;59316;52.964;7.102;2022-09-16T02:03:49;5.65;;;1.40;;
70757;SDS011;59316;52.964;7.102;2022-09-16T02:09:01;4.85;;;1.20;;
70757;SDS011;59316;52.964;7.102;2022-09-16T02:14:18;3.28;;;1.40;;
70757;SDS011;59316;52.964;7.102;2022-09-16T02:19:29;5.63;;;1.20;;
70757;SDS011;59316;52.964;7.102;2022-09-16T02:24:35;7.78;;;1.45;;
70757;SDS011;59316;52.964;7.102;2022-09-16T02:29:45;3.72;;;0.90;;
70757;SDS011;59316;52.964;7.102;2022-09-16T02:34:50;8.13;;;1.20;;
70757;SDS011;59316;52.964;7.102;2022-09-16T02:39:55;7.15;;;1.67;;
70757;SDS011;59316;52.964;7.102;2022-09-16T02:44:59;6.22;;;1.25;;
70757;SDS011;59316;52.964;7.102;2022-09-16T02:50:26;6.20;;;1.30;;
70757;SDS011;59316;52.964;7.102;2022-09-16T03:00:34;10.00;;;1.52;;
70757;SDS011;59316;52.964;7.102;2022-09-16T03:11:52;2.63;;;1.20;;
70757;SDS011;59316;52.964;7.102;2022-09-16T03:22:21;4.75;;;1.60;;
70757;SDS011;59316;52.964;7.102;2022-09-16T03:27:29;6.03;;;1.58;;
70757;SDS011;59316;52.964;7.102;2022-09-16T03:32:56;2.17;;;1.23;;
70757;SDS011;59316;52.964;7.102;2022-09-16T03:37:59;5.10;;;1.88;;
70757;SDS011;59316;52.964;7.102;2022-09-16T03:43:12;7.93;;;1.45;;
70757;SDS011;59316;52.964;7.102;2022-09-16T03:48:15;8.95;;;1.50;;
70757;SDS011;59316;52.964;7.102;2022-09-16T03:53:17;5.40;;;1.40;;
70757;SDS011;59316;52.964;7.102;2022-09-16T03:58:20;8.00;;;1.42;;
70757;SDS011;59316;52.964;7.102;2022-09-16T04:03:22;5.88;;;1.15;;
70757;SDS011;59316;52.964;7.102;2022-09-16T04:08:24;4.70;;;1.17;;
70757;SDS011;59316;52.964;7.102;2022-09-16T04:13:30;6.30;;;1.50;;
70757;SDS011;59316;52.964;7.102;2022-09-16T04:18:36;9.30;;;1.50;;
70757;SDS011;59316;52.964;7.102;2022-09-16T04:23:38;5.78;;;1.65;;
70757;SDS011;59316;52.964;7.102;2022-09-16T04:28:41;8.70;;;1.70;;
70757;SDS011;59316;52.964;7.102;2022-09-16T04:33:43;3.85;;;1.35;;
70757;SDS011;59316;52.964;7.102;2022-09-16T04:38:46;7.53;;;1.58;;
70757;SDS011;59316;52.964;7.102;2022-09-16T04:48:52;8.52;;;1.60;;
70757;SDS011;59316;52.964;7.102;2022-09-16T04:58:58;4.40;;;1.20;;
70757;SDS011;59316;52.964;7.102;2022-09-16T05:04:03;9.38;;;2.05;;
70757;SDS011;59316;52.964;7.102;2022-09-16T05:09:08;7.65;;;2.03;;
70757;SDS011;59316;52.964;7.102;2022-09-16T05:14:12;4.63;;;1.38;;
70757;SDS011;59316;52.964;7.102;2022-09-16T05:19:17;12.48;;;1.70;;
70757;SDS011;59316;52.964;7.102;2022-09-16T05:24:19;6.80;;;1.65;;
70757;SDS011;59316;52.964;7.102;2022-09-16T05:29:21;8.13;;;1.75;;
70757;SDS011;59316;52.964;7.102;2022-09-16T05:34:23;11.32;;;1.90;;
70757;SDS011;59316;52.964;7.102;2022-09-16T05:39:26;8.13;;;1.73;;
70757;SDS011;59316;52.964;7.102;2022-09-16T05:44:28;5.90;;;1.37;;
70757;SDS011;59316;52.964;7.102;2022-09-16T05:49:30;6.80;;;1.55;;
70757;SDS011;59316;52.964;7.102;2022-09-16T05:54:33;7.47;;;1.70;;
70757;SDS011;59316;52.964;7.102;2022-09-16T05:59:35;4.15;;;1.33;;
70757;SDS011;59316;52.964;7.102;2022-09-16T06:04:37;8.40;;;1.20;;
70757;SDS011;59316;52.964;7.102;2022-09-16T06:09:39;11.35;;;1.60;;
70757;SDS011;59316;52.964;7.102;2022-09-16T06:14:42;10.77;;;1.48;;
70757;SDS011;59316;52.964;7.102;2022-09-16T06:19:44;5.28;;;0.98;;
70757;SDS011;59316;52.964;7.102;2022-09-16T06:24:46;8.48;;;1.23;;
70757;SDS011;59316;52.964;7.102;2022-09-16T06:29:48;6.70;;;1.42;;
70757;SDS011;59316;52.964;7.102;2022-09-16T06:34:50;9.35;;;1.48;;
70757;SDS011;59316;52.964;7.102;2022-09-16T06:39:53;14.32;;;1.40;;
70757;SDS011;59316;52.964;7.102;2022-09-16T06:44:55;10.63;;;1.92;;
70757;SDS011;59316;52.964;7.102;2022-09-16T06:50:00;7.10;;;1.30;;
70757;SDS011;59316;52.964;7.102;2022-09-16T06:55:03;8.65;;;1.40;;
70757;SDS011;59316;52.964;7.102;2022-09-16T07:00:06;5.72;;;1.20;;
70757;SDS011;59316;52.964;7.102;2022-09-16T07:05:09;5.75;;;1.33;;
70757;SDS011;59316;52.964;7.102;2022-09-16T07:10:11;7.00;;;1.30;;
70757;SDS011;59316;52.964;7.102;2022-09-16T07:15:14;8.90;;;1.20;;
70757;SDS011;59316;52.964;7.102;2022-09-16T07:20:16;2.35;;;0.88;;
70757;SDS011;59316;52.964;7.102;2022-09-16T07:25:18;11.02;;;2.35;;
70757;SDS011;59316;52.964;7.102;2022-09-16T07:30:20;5.43;;;0.90;;
70757;SDS011;59316;52.964;7.102;2022-09-16T07:35:22;5.03;;;1.10;;
70757;SDS011;59316;52.964;7.102;2022-09-16T07:40:25;8.73;;;1.40;;
70757;SDS011;59316;52.964;7.102;2022-09-16T07:45:30;3.22;;;0.88;;
70757;SDS011;59316;52.964;7.102;2022-09-16T07:50:33;9.20;;;0.88;;
70757;SDS011;59316;52.964;7.102;2022-09-16T07:55:35;9.47;;;1.00;;
70757;SDS011;59316;52.964;7.102;2022-09-16T08:00:37;8.87;;;1.33;;
70757;SDS011;59316;52.964;7.102;2022-09-16T08:05:40;9.73;;;1.00;;
70757;SDS011;59316;52.964;7.102;2022-09-16T08:10:42;9.73;;;1.08;;
70757;SDS011;59316;52.964;7.102;2022-09-16T08:15:45;5.82;;;0.90;;
70757;SDS011;59316;52.964;7.102;2022-09-16T08:20:47;6.87;;;1.20;;
70757;SDS011;59316;52.964;7.102;2022-09-16T08:25:56;7.17;;;1.23;;
70757;SDS011;59316;52.964;7.102;2022-09-16T08:30:59;5.93;;;1.25;;
70757;SDS011;59316;52.964;7.102;2022-09-16T08:36:12;8.75;;;1.10;;
70757;SDS011;59316;52.964;7.102;2022-09-16T08:46:21;5.70;;;1.30;;
70757;SDS011;59316;52.964;7.102;2022-09-16T08:51:34;6.50;;;1.00;;
70757;SDS011;59316;52.964;7.102;2022-09-16T08:56:36;7.17;;;1.07;;
70757;SDS011;59316;52.964;7.102;2022-09-16T09:01:46;6.97;;;0.90;;
70757;SDS011;59316;52.964;7.102;2022-09-16T09:07:13;7.07;;;1.00;;
70757;SDS011;59316;52.964;7.102;2022-09-16T09:12:48;9.93;;;1.60;;
70757;SDS011;59316;52.964;7.102;2022-09-16T09:49:49;3.60;;;1.10;;
70757;SDS011;59316;52.964;7.102;2022-09-16T10:00:43;8.30;;;1.30;;
70757;SDS011;59316;52.964;7.102;2022-09-16T10:05:47;9.77;;;1.25;;
70757;SDS011;59316;52.964;7.102;2022-09-16T10:10:57;6.45;;;1.08;;
70757;SDS011;59316;52.964;7.102;2022-09-16T10:16:13;8.73;;;1.38;;
70757;SDS011;59316;52.964;7.102;2022-09-16T10:21:18;5.05;;;0.93;;
70757;SDS011;59316;52.964;7.102;2022-09-16T10:26:21;7.85;;;1.10;;
70757;SDS011;59316;52.964;7.102;2022-09-16T10:31:27;7.97;;;1.05;;
70757;SDS011;59316;52.964;7.102;2022-09-16T10:36:35;7.90;;;2.38;;
70757;SDS011;59316;52.964;7.102;2022-09-16T10:41:41;6.03;;;1.00;;
70757;SDS011;59316;52.964;7.102;2022-09-16T10:46:51;5.53;;;1.20;;
70757;SDS011;59316;52.964;7.102;2022-09-16T10:51:54;8.13;;;0.98;;
70757;SDS011;59316;52.964;7.102;2022-09-16T10:56:56;4.13;;;0.90;;
70757;SDS011;59316;52.964;7.102;2022-09-16T11:07:37;4.75;;;0.90;;
70757;SDS011;59316;52.964;7.102;2022-09-16T11:13:08;10.30;;;1.40;;
70757;SDS011;59316;52.964;7.102;2022-09-16T11:50:35;7.55;;;1.15;;
70757;SDS011;59316;52.964;7.102;2022-09-16T11:55:49;7.50;;;0.93;;
70757;SDS011;59316;52.964;7.102;2022-09-16T12:00:57;4.40;;;0.90;;
70757;SDS011;59316;52.964;7.102;2022-09-16T12:06:07;7.65;;;1.27;;
70757;SDS011;59316;52.964;7.102;2022-09-16T12:21:51;7.40;;;1.35;;
70757;SDS011;59316;52.964;7.102;2022-09-16T12:27:24;5.03;;;1.15;;
70757;SDS011;59316;52.964;7.102;2022-09-16T12:33:05;5.40;;;1.20;;
70757;SDS011;59316;52.964;7.102;2022-09-16T12:38:14;3.35;;;0.90;;
70757;SDS011;59316;52.964;7.102;2022-09-16T12:49:01;2.15;;;0.90;;
70757;SDS011;59316;52.964;7.102;2022-09-16T13:00:22;6.00;;;1.08;;
70757;SDS011;59316;52.964;7.102;2022-09-16T13:05:29;6.50;;;1.30;;
70757;SDS011;59316;52.964;7.102;2022-09-16T13:10:38;15.50;;;1.83;;
70757;SDS011;59316;52.964;7.102;2022-09-16T13:15:59;8.88;;;1.73;;
70757;SDS011;59316;52.964;7.102;2022-09-16T13:21:14;10.18;;;1.50;;
70757;SDS011;59316;52.964;7.102;2022-09-16T13:26:24;10.52;;;1.77;;
70757;SDS011;59316;52.964;7.102;2022-09-16T13:31:28;14.10;;;1.75;;
70757;SDS011;59316;52.964;7.102;2022-09-16T13:36:34;11.73;;;1.85;;
70757;SDS011;59316;52.964;7.102;2022-09-16T13:46:42;10.80;;;1.40;;
70757;SDS011;59316;52.964;7.102;2022-09-16T13:51:45;7.20;;;1.00;;
70757;SDS011;59316;52.964;7.102;2022-09-16T13:57:11;5.30;;;1.13;;
70757;SDS011;59316;52.964;7.102;2022-09-16T14:18:11;1.67;;;0.40;;
70757;SDS011;59316;52.964;7.102;2022-09-16T14:23:16;3.58;;;0.40;;
70757;SDS011;59316;52.964;7.102;2022-09-16T14:28:20;6.00;;;0.65;;
70757;SDS011;59316;52.964;7.102;2022-09-16T14:33:28;2.80;;;0.60;;
70757;SDS011;59316;52.964;7.102;2022-09-16T14:38:34;4.47;;;0.75;;
70757;SDS011;59316;52.964;7.102;2022-09-16T14:43:47;5.75;;;0.80;;
70757;SDS011;59316;52.964;7.102;2022-09-16T14:48:49;5.85;;;0.65;;
70757;SDS011;59316;52.964;7.102;2022-09-16T14:53:53;7.40;;;1.37;;
70757;SDS011;59316;52.964;7.102;2022-09-16T15:04:46;6.88;;;1.10;;
70757;SDS011;59316;52.964;7.102;2022-09-16T15:10:24;6.22;;;1.20;;
70757;SDS011;59316;52.964;7.102;2022-09-16T15:15:33;4.75;;;0.98;;
70757;SDS011;59316;52.964;7.102;2022-09-16T15:20:38;7.15;;;1.00;;
70757;SDS011;59316;52.964;7.102;2022-09-16T15:25:49;7.35;;;1.02;;
70757;SDS011;59316;52.964;7.102;2022-09-16T15:30:59;4.95;;;0.98;;
70757;SDS011;59316;52.964;7.102;2022-09-16T15:36:01;4.47;;;1.10;;
70757;SDS011;59316;52.964;7.102;2022-09-16T15:41:05;5.95;;;1.15;;
70757;SDS011;59316;52.964;7.102;2022-09-16T15:46:22;3.05;;;0.60;;
70757;SDS011;59316;52.964;7.102;2022-09-16T15:51:35;4.10;;;0.52;;
70757;SDS011;59316;52.964;7.102;2022-09-16T16:02:21;4.15;;;0.73;;
70757;SDS011;59316;52.964;7.102;2022-09-16T16:07:40;2.15;;;0.80;;
70757;SDS011;59316;52.964;7.102;2022-09-16T16:12:44;4.00;;;0.70;;
70757;SDS011;59316;52.964;7.102;2022-09-16T16:17:48;7.68;;;1.73;;
70757;SDS011;59316;52.964;7.102;2022-09-16T16:22:51;2.90;;;0.90;;
70757;SDS011;59316;52.964;7.102;2022-09-16T16:27:54;8.10;;;1.35;;
70757;SDS011;59316;52.964;7.102;2022-09-16T16:32:56;7.87;;;1.07;;
70757;SDS011;59316;52.964;7.102;2022-09-16T16:37:58;4.93;;;1.00;;
70757;SDS011;59316;52.964;7.102;2022-09-16T16:43:00;6.95;;;0.80;;
70757;SDS011;59316;52.964;7.102;2022-09-16T16:48:03;7.75;;;1.25;;
70757;SDS011;59316;52.964;7.102;2022-09-16T16:53:05;6.65;;;1.20;;
70757;SDS011;59316;52.964;7.102;2022-09-16T16:58:07;4.00;;;0.80;;
70757;SDS011;59316;52.964;7.102;2022-09-16T17:03:10;5.43;;;0.80;;
70757;SDS011;59316;52.964;7.102;2022-09-16T17:08:12;11.68;;;1.08;;
70757;SDS011;59316;52.964;7.102;2022-09-16T17:13:14;4.30;;;1.52;;
70757;SDS011;59316;52.964;7.102;2022-09-16T17:18:16;5.90;;;1.05;;
70757;SDS011;59316;52.964;7.102;2022-09-16T17:23:18;5.40;;;0.95;;
70757;SDS011;59316;52.964;7.102;2022-09-16T17:28:21;5.68;;;1.42;;
70757;SDS011;59316;52.964;7.102;2022-09-16T17:33:23;10.88;;;1.67;;
70757;SDS011;59316;52.964;7.102;2022-09-16T17:38:26;9.75;;;1.50;;
70757;SDS011;59316;52.964;7.102;2022-09-16T17:43:28;5.00;;;1.60;;
70757;SDS011;59316;52.964;7.102;2022-09-16T17:48:33;7.38;;;1.00;;
70757;SDS011;59316;52.964;7.102;2022-09-16T17:53:35;4.63;;;1.30;;
70757;SDS011;59316;52.964;7.102;2022-09-16T17:58:38;7.22;;;1.98;;
70757;SDS011;59316;52.964;7.102;2022-09-16T18:03:43;7.55;;;1.48;;
70757;SDS011;59316;52.964;7.102;2022-09-16T18:08:47;7.32;;;1.02;;
70757;SDS011;59316;52.964;7.102;2022-09-16T18:13:58;9.75;;;1.75;;
70757;SDS011;59316;52.964;7.102;2022-09-16T18:19:02;5.45;;;1.20;;
70757;SDS011;59316;52.964;7.102;2022-09-16T18:24:05;11.63;;;1.17;;
70757;SDS011;59316;52.964;7.102;2022-09-16T18:29:08;6.70;;;1.17;;
70757;SDS011;59316;52.964;7.102;2022-09-16T18:34:13;5.38;;;1.08;;
70757;SDS011;59316;52.964;7.102;2022-09-16T18:39:16;2.85;;;1.00;;
70757;SDS011;59316;52.964;7.102;2022-09-16T18:44:20;7.22;;;1.10;;
70757;SDS011;59316;52.964;7.102;2022-09-16T18:49:23;3.75;;;0.88;;
70757;SDS011;59316;52.964;7.102;2022-09-16T18:54:26;10.82;;;1.90;;
70757;SDS011;59316;52.964;7.102;2022-09-16T18:59:30;9.93;;;2.60;;
70757;SDS011;59316;52.964;7.102;2022-09-16T19:04:36;7.95;;;1.10;;
70757;SDS011;59316;52.964;7.102;2022-09-16T19:09:39;7.20;;;1.27;;
70757;SDS011;59316;52.964;7.102;2022-09-16T19:14:42;9.20;;;1.40;;
70757;SDS011;59316;52.964;7.102;2022-09-16T19:19:44;8.80;;;1.23;;
70757;SDS011;59316;52.964;7.102;2022-09-16T19:24:47;7.45;;;1.27;;
70757;SDS011;59316;52.964;7.102;2022-09-16T19:29:49;7.90;;;1.42;;
70757;SDS011;59316;52.964;7.102;2022-09-16T19:34:51;14.15;;;1.60;;
70757;SDS011;59316;52.964;7.102;2022-09-16T19:39:53;9.57;;;1.30;;
70757;SDS011;59316;52.964;7.102;2022-09-16T19:44:56;7.10;;;1.33;;
70757;SDS011;59316;52.964;7.102;2022-09-16T19:49:58;11.48;;;1.75;;
70757;SDS011;59316;52.964;7.102;2022-09-16T19:55:00;12.00;;;2.05;;
70757;SDS011;59316;52.964;7.102;2022-09-16T20:00:03;9.83;;;1.30;;
70757;SDS011;59316;52.964;7.102;2022-09-16T20:05:12;15.57;;;1.88;;
70757;SDS011;59316;52.964;7.102;2022-09-16T20:10:14;4.82;;;1.20;;
70757;SDS011;59316;52.964;7.102;2022-09-16T20:15:17;6.45;;;1.38;;
70757;SDS011;59316;52.964;7.102;2022-09-16T20:20:20;8.88;;;1.70;;
70757;SDS011;59316;52.964;7.102;2022-09-16T20:25:23;11.45;;;1.48;;
70757;SDS011;59316;52.964;7.102;2022-09-16T20:30:25;10.87;;;1.53;;
70757;SDS011;59316;52.964;7.102;2022-09-16T20:35:27;15.85;;;1.75;;
70757;SDS011;59316;52.964;7.102;2022-09-16T20:40:30;12.57;;;1.60;;
70757;SDS011;59316;52.964;7.102;2022-09-16T20:45:34;19.10;;;2.05;;
70757;SDS011;59316;52.964;7.102;2022-09-16T20:50:37;10.23;;;1.90;;
70757;SDS011;59316;52.964;7.102;2022-09-16T20:55:40;16.83;;;1.70;;
70757;SDS011;59316;52.964;7.102;2022-09-16T21:00:42;13.37;;;2.20;;
70757;SDS011;59316;52.964;7.102;2022-09-16T21:05:44;15.60;;;2.05;;
70757;SDS011;59316;52.964;7.102;2022-09-16T21:10:46;14.75;;;2.10;;
70757;SDS011;59316;52.964;7.102;2022-09-16T21:15:55;18.05;;;2.40;;
70757;SDS011;59316;52.964;7.102;2022-09-16T21:21:10;15.10;;;2.30;;
70757;SDS011;59316;52.964;7.102;2022-09-16T21:26:20;12.27;;;2.50;;
70757;SDS011;59316;52.964;7.102;2022-09-16T21:31:24;17.80;;;2.60;;
70757;SDS011;59316;52.964;7.102;2022-09-16T21:36:28;12.52;;;2.38;;
70757;SDS011;59316;52.964;7.102;2022-09-16T21:41:30;13.25;;;1.83;;
70757;SDS011;59316;52.964;7.102;2022-09-16T21:46:34;16.07;;;1.90;;
70757;SDS011;59316;52.964;7.102;2022-09-16T21:51:38;11.52;;;2.08;;
70757;SDS011;59316;52.964;7.102;2022-09-16T21:56:41;16.77;;;2.80;;
70757;SDS011;59316;52.964;7.102;2022-09-16T22:01:43;10.38;;;1.70;;
70757;SDS011;59316;52.964;7.102;2022-09-16T22:06:45;14.77;;;2.30;;
70757;SDS011;59316;52.964;7.102;2022-09-16T22:11:48;17.70;;;1.90;;
70757;SDS011;59316;52.964;7.102;2022-09-16T22:16:50;9.83;;;2.30;;
70757;SDS011;59316;52.964;7.102;2022-09-16T22:21:52;10.90;;;2.53;;
70757;SDS011;59316;52.964;7.102;2022-09-16T22:26:54;13.57;;;2.53;;
70757;SDS011;59316;52.964;7.102;2022-09-16T22:31:57;12.93;;;1.88;;
70757;SDS011;59316;52.964;7.102;2022-09-16T22:36:59;12.32;;;1.60;;
70757;SDS011;59316;52.964;7.102;2022-09-16T22:42:01;11.02;;;1.48;;
70757;SDS011;59316;52.964;7.102;2022-09-16T22:47:03;9.27;;;1.50;;
70757;SDS011;59316;52.964;7.102;2022-09-16T22:52:06;9.03;;;1.70;;
70757;SDS011;59316;52.964;7.102;2022-09-16T22:57:08;20.92;;;2.80;;
70757;SDS011;59316;52.964;7.102;2022-09-16T23:02:10;19.27;;;2.33;;
70757;SDS011;59316;52.964;7.102;2022-09-16T23:07:12;12.68;;;1.75;;
70757;SDS011;59316;52.964;7.102;2022-09-16T23:12:15;11.80;;;1.88;;
70757;SDS011;59316;52.964;7.102;2022-09-16T23:17:17;10.35;;;1.67;;
70757;SDS011;59316;52.964;7.102;2022-09-16T23:22:19;13.07;;;1.90;;
70757;SDS011;59316;52.964;7.102;2022-09-16T23:27:21;22.35;;;1.92;;
70757;SDS011;59316;52.964;7.102;2022-09-16T23:32:23;13.35;;;2.05;;
70757;SDS011;59316;52.964;7.102;2022-09-16T23:37:27;14.05;;;2.03;;
70757;SDS011;59316;52.964;7.102;2022-09-16T23:42:30;17.13;;;2.15;;
70757;SDS011;59316;52.964;7.102;2022-09-16T23:47:32;16.15;;;2.30;;
70757;SDS011;59316;52.964;7.102;2022-09-16T23:52:34;13.13;;;2.22;;
70757;SDS011;59316;52.964;7.102;2022-09-16T23:57:37;13.52;;;1.90;;
